sensor_id;sensor_type;location;lat;lon;timestamp;temperature;humidity
68922;DHT22;55959;51.244;5.724;2023-11-19T00:02:20;15.80;82.20
68922;DHT22;55959;51.244;5.724;2023-11-19T00:04:47;15.90;83.10
68922;DHT22;55959;51.244;5.724;2023-11-19T00:07:13;15.90;82.20
68922;DHT22;55959;51.244;5.724;2023-11-19T00:09:40;15.90;82.20
68922;DHT22;55959;51.244;5.724;2023-11-19T00:12:07;15.90;82.20
68922;DHT22;55959;51.244;5.724;2023-11-19T00:14:35;15.90;82.30
68922;DHT22;55959;51.244;5.724;2023-11-19T00:17:01;15.90;82.30
68922;DHT22;55959;51.244;5.724;2023-11-19T00:19:29;15.90;82.30
68922;DHT22;55959;51.244;5.724;2023-11-19T00:21:55;16.00;82.40
68922;DHT22;55959;51.244;5.724;2023-11-19T00:24:20;16.00;82.30
68922;DHT22;55959;51.244;5.724;2023-11-19T00:26:47;16.00;82.30
68922;DHT22;55959;51.244;5.724;2023-11-19T00:29:13;16.00;82.30
68922;DHT22;55959;51.244;5.724;2023-11-19T00:31:39;16.10;82.30
68922;DHT22;55959;51.244;5.724;2023-11-19T00:34:05;16.10;82.30
68922;DHT22;55959;51.244;5.724;2023-11-19T00:36:31;16.10;82.20
68922;DHT22;55959;51.244;5.724;2023-11-19T00:38:57;16.10;82.10
68922;DHT22;55959;51.244;5.724;2023-11-19T00:41:23;16.10;82.10
68922;DHT22;55959;51.244;5.724;2023-11-19T00:43:51;16.10;82.10
68922;DHT22;55959;51.244;5.724;2023-11-19T00:46:16;16.10;82.10
68922;DHT22;55959;51.244;5.724;2023-11-19T00:48:42;16.20;82.10
68922;DHT22;55959;51.244;5.724;2023-11-19T00:51:08;16.10;82.10
68922;DHT22;55959;51.244;5.724;2023-11-19T00:53:34;16.20;82.10
68922;DHT22;55959;51.244;5.724;2023-11-19T00:56:00;16.20;82.10
68922;DHT22;55959;51.244;5.724;2023-11-19T00:58:26;16.20;82.10
68922;DHT22;55959;51.244;5.724;2023-11-19T01:00:52;16.20;82.00
68922;DHT22;55959;51.244;5.724;2023-11-19T01:03:18;16.20;81.90
68922;DHT22;55959;51.244;5.724;2023-11-19T01:05:44;16.20;81.90
68922;DHT22;55959;51.244;5.724;2023-11-19T01:08:12;16.20;81.90
68922;DHT22;55959;51.244;5.724;2023-11-19T01:10:38;16.20;81.90
68922;DHT22;55959;51.244;5.724;2023-11-19T01:13:03;16.30;81.90
68922;DHT22;55959;51.244;5.724;2023-11-19T01:15:32;16.30;81.90
68922;DHT22;55959;51.244;5.724;2023-11-19T01:17:58;16.30;81.90
68922;DHT22;55959;51.244;5.724;2023-11-19T01:20:24;16.20;81.90
68922;DHT22;55959;51.244;5.724;2023-11-19T01:22:50;16.30;81.90
68922;DHT22;55959;51.244;5.724;2023-11-19T01:25:16;16.30;81.90
68922;DHT22;55959;51.244;5.724;2023-11-19T01:27:42;16.30;81.90
68922;DHT22;55959;51.244;5.724;2023-11-19T01:30:08;16.30;81.80
68922;DHT22;55959;51.244;5.724;2023-11-19T01:32:38;16.30;81.70
68922;DHT22;55959;51.244;5.724;2023-11-19T01:35:05;16.30;81.70
68922;DHT22;55959;51.244;5.724;2023-11-19T01:37:31;16.40;81.80
68922;DHT22;55959;51.244;5.724;2023-11-19T01:39:58;16.40;81.70
68922;DHT22;55959;51.244;5.724;2023-11-19T01:42:23;16.40;81.70
68922;DHT22;55959;51.244;5.724;2023-11-19T01:44:59;16.40;81.70
68922;DHT22;55959;51.244;5.724;2023-11-19T01:47:26;16.40;81.60
68922;DHT22;55959;51.244;5.724;2023-11-19T01:49:54;16.40;81.60
68922;DHT22;55959;51.244;5.724;2023-11-19T01:52:22;16.40;81.50
68922;DHT22;55959;51.244;5.724;2023-11-19T01:54:49;16.40;81.50
68922;DHT22;55959;51.244;5.724;2023-11-19T01:57:15;16.40;81.50
68922;DHT22;55959;51.244;5.724;2023-11-19T01:59:41;16.40;81.50
68922;DHT22;55959;51.244;5.724;2023-11-19T02:02:07;16.40;81.40
68922;DHT22;55959;51.244;5.724;2023-11-19T02:04:33;16.40;81.40
68922;DHT22;55959;51.244;5.724;2023-11-19T02:07:00;16.40;81.40
68922;DHT22;55959;51.244;5.724;2023-11-19T02:09:26;16.40;81.30
68922;DHT22;55959;51.244;5.724;2023-11-19T02:11:52;16.40;81.30
68922;DHT22;55959;51.244;5.724;2023-11-19T02:14:23;16.40;81.20
68922;DHT22;55959;51.244;5.724;2023-11-19T02:16:51;16.50;81.30
68922;DHT22;55959;51.244;5.724;2023-11-19T02:19:20;16.50;81.20
68922;DHT22;55959;51.244;5.724;2023-11-19T02:21:46;16.50;81.20
68922;DHT22;55959;51.244;5.724;2023-11-19T02:24:14;16.40;81.10
68922;DHT22;55959;51.244;5.724;2023-11-19T02:27:10;16.40;80.90
68922;DHT22;55959;51.244;5.724;2023-11-19T02:29:41;16.50;80.90
68922;DHT22;55959;51.244;5.724;2023-11-19T02:32:08;16.40;80.80
68922;DHT22;55959;51.244;5.724;2023-11-19T02:34:34;16.40;80.70
68922;DHT22;55959;51.244;5.724;2023-11-19T02:37:01;16.50;80.80
68922;DHT22;55959;51.244;5.724;2023-11-19T02:39:26;16.40;80.70
68922;DHT22;55959;51.244;5.724;2023-11-19T02:41:52;16.50;80.70
68922;DHT22;55959;51.244;5.724;2023-11-19T02:44:18;16.50;80.70
68922;DHT22;55959;51.244;5.724;2023-11-19T02:46:44;16.50;80.50
68922;DHT22;55959;51.244;5.724;2023-11-19T02:49:10;16.50;80.40
68922;DHT22;55959;51.244;5.724;2023-11-19T02:51:35;16.50;80.50
68922;DHT22;55959;51.244;5.724;2023-11-19T02:54:02;16.50;80.30
68922;DHT22;55959;51.244;5.724;2023-11-19T02:56:29;16.50;80.30
68922;DHT22;55959;51.244;5.724;2023-11-19T02:59:00;16.50;80.10
68922;DHT22;55959;51.244;5.724;2023-11-19T03:01:33;16.50;80.10
68922;DHT22;55959;51.244;5.724;2023-11-19T03:04:01;16.50;79.90
68922;DHT22;55959;51.244;5.724;2023-11-19T03:06:28;16.50;79.90
68922;DHT22;55959;51.244;5.724;2023-11-19T03:08:55;16.50;79.80
68922;DHT22;55959;51.244;5.724;2023-11-19T03:11:21;16.50;79.70
68922;DHT22;55959;51.244;5.724;2023-11-19T03:13:46;16.50;79.70
68922;DHT22;55959;51.244;5.724;2023-11-19T03:16:13;16.50;79.50
68922;DHT22;55959;51.244;5.724;2023-11-19T03:18:39;16.50;79.40
68922;DHT22;55959;51.244;5.724;2023-11-19T03:21:06;16.50;80.10
68922;DHT22;55959;51.244;5.724;2023-11-19T03:23:33;16.40;79.10
68922;DHT22;55959;51.244;5.724;2023-11-19T03:25:59;16.40;79.10
68922;DHT22;55959;51.244;5.724;2023-11-19T03:28:29;16.40;78.90
68922;DHT22;55959;51.244;5.724;2023-11-19T03:30:54;16.40;78.90
68922;DHT22;55959;51.244;5.724;2023-11-19T03:33:20;16.40;78.90
68922;DHT22;55959;51.244;5.724;2023-11-19T03:35:46;16.40;78.90
68922;DHT22;55959;51.244;5.724;2023-11-19T03:38:12;16.40;78.70
68922;DHT22;55959;51.244;5.724;2023-11-19T03:40:40;16.40;78.70
68922;DHT22;55959;51.244;5.724;2023-11-19T03:43:07;16.40;78.60
68922;DHT22;55959;51.244;5.724;2023-11-19T03:45:32;16.40;78.50
68922;DHT22;55959;51.244;5.724;2023-11-19T03:47:58;16.40;78.40
68922;DHT22;55959;51.244;5.724;2023-11-19T03:50:24;16.40;78.30
68922;DHT22;55959;51.244;5.724;2023-11-19T03:52:51;16.30;78.20
68922;DHT22;55959;51.244;5.724;2023-11-19T03:55:17;16.30;78.30
68922;DHT22;55959;51.244;5.724;2023-11-19T03:57:43;16.30;78.20
68922;DHT22;55959;51.244;5.724;2023-11-19T04:00:09;16.30;78.20
68922;DHT22;55959;51.244;5.724;2023-11-19T04:02:36;16.30;78.10
68922;DHT22;55959;51.244;5.724;2023-11-19T04:05:02;16.30;78.00
68922;DHT22;55959;51.244;5.724;2023-11-19T04:07:29;16.30;77.90
68922;DHT22;55959;51.244;5.724;2023-11-19T04:09:55;16.30;78.00
68922;DHT22;55959;51.244;5.724;2023-11-19T04:12:21;16.20;77.80
68922;DHT22;55959;51.244;5.724;2023-11-19T04:14:47;16.20;77.70
68922;DHT22;55959;51.244;5.724;2023-11-19T04:17:13;16.20;77.60
68922;DHT22;55959;51.244;5.724;2023-11-19T04:19:39;16.20;77.60
68922;DHT22;55959;51.244;5.724;2023-11-19T04:22:09;16.20;77.60
68922;DHT22;55959;51.244;5.724;2023-11-19T04:24:36;16.20;77.60
68922;DHT22;55959;51.244;5.724;2023-11-19T04:27:02;16.20;77.60
68922;DHT22;55959;51.244;5.724;2023-11-19T04:29:30;16.20;77.60
68922;DHT22;55959;51.244;5.724;2023-11-19T04:31:56;16.20;77.50
68922;DHT22;55959;51.244;5.724;2023-11-19T04:34:22;16.20;77.50
68922;DHT22;55959;51.244;5.724;2023-11-19T04:36:48;16.20;77.40
68922;DHT22;55959;51.244;5.724;2023-11-19T04:39:14;16.20;78.30
68922;DHT22;55959;51.244;5.724;2023-11-19T04:41:50;16.20;77.40
68922;DHT22;55959;51.244;5.724;2023-11-19T04:44:20;16.10;77.30
68922;DHT22;55959;51.244;5.724;2023-11-19T04:46:46;16.10;77.30
68922;DHT22;55959;51.244;5.724;2023-11-19T04:49:13;16.10;77.20
68922;DHT22;55959;51.244;5.724;2023-11-19T04:51:40;16.10;77.20
68922;DHT22;55959;51.244;5.724;2023-11-19T04:54:10;16.10;77.10
68922;DHT22;55959;51.244;5.724;2023-11-19T04:56:36;16.10;77.10
68922;DHT22;55959;51.244;5.724;2023-11-19T04:59:06;16.10;77.00
68922;DHT22;55959;51.244;5.724;2023-11-19T05:01:35;16.10;76.90
68922;DHT22;55959;51.244;5.724;2023-11-19T05:04:01;16.10;76.90
68922;DHT22;55959;51.244;5.724;2023-11-19T05:06:31;16.10;76.80
68922;DHT22;55959;51.244;5.724;2023-11-19T05:08:59;16.10;76.70
68922;DHT22;55959;51.244;5.724;2023-11-19T05:11:33;16.10;76.70
68922;DHT22;55959;51.244;5.724;2023-11-19T05:14:00;16.10;76.70
68922;DHT22;55959;51.244;5.724;2023-11-19T05:16:29;16.10;76.50
68922;DHT22;55959;51.244;5.724;2023-11-19T05:18:55;16.10;76.50
68922;DHT22;55959;51.244;5.724;2023-11-19T05:21:21;16.10;76.40
68922;DHT22;55959;51.244;5.724;2023-11-19T05:23:46;16.10;76.10
68922;DHT22;55959;51.244;5.724;2023-11-19T05:26:20;16.10;76.10
68922;DHT22;55959;51.244;5.724;2023-11-19T05:28:46;16.10;76.00
68922;DHT22;55959;51.244;5.724;2023-11-19T05:31:17;16.10;75.90
68922;DHT22;55959;51.244;5.724;2023-11-19T05:33:43;16.10;75.80
68922;DHT22;55959;51.244;5.724;2023-11-19T05:36:11;16.10;75.70
68922;DHT22;55959;51.244;5.724;2023-11-19T05:38:38;16.10;75.50
68922;DHT22;55959;51.244;5.724;2023-11-19T05:41:04;16.00;75.40
68922;DHT22;55959;51.244;5.724;2023-11-19T05:43:31;16.00;75.30
68922;DHT22;55959;51.244;5.724;2023-11-19T05:45:57;16.00;75.30
68922;DHT22;55959;51.244;5.724;2023-11-19T05:48:25;16.00;75.30
68922;DHT22;55959;51.244;5.724;2023-11-19T05:50:51;16.00;75.20
68922;DHT22;55959;51.244;5.724;2023-11-19T05:53:17;16.00;75.10
68922;DHT22;55959;51.244;5.724;2023-11-19T05:55:43;16.00;75.10
68922;DHT22;55959;51.244;5.724;2023-11-19T05:58:15;16.00;75.90
68922;DHT22;55959;51.244;5.724;2023-11-19T06:00:41;16.00;74.90
68922;DHT22;55959;51.244;5.724;2023-11-19T06:03:07;16.00;74.90
68922;DHT22;55959;51.244;5.724;2023-11-19T06:05:34;15.90;74.70
68922;DHT22;55959;51.244;5.724;2023-11-19T06:08:01;16.00;74.70
68922;DHT22;55959;51.244;5.724;2023-11-19T06:10:27;15.90;74.50
68922;DHT22;55959;51.244;5.724;2023-11-19T06:12:59;15.90;74.50
68922;DHT22;55959;51.244;5.724;2023-11-19T06:15:26;15.90;74.30
68922;DHT22;55959;51.244;5.724;2023-11-19T06:17:53;15.90;74.30
68922;DHT22;55959;51.244;5.724;2023-11-19T06:20:18;15.90;74.30
68922;DHT22;55959;51.244;5.724;2023-11-19T06:22:47;15.80;74.20
68922;DHT22;55959;51.244;5.724;2023-11-19T06:25:13;15.90;74.10
68922;DHT22;55959;51.244;5.724;2023-11-19T06:27:41;15.80;73.90
68922;DHT22;55959;51.244;5.724;2023-11-19T06:30:07;15.80;73.80
68922;DHT22;55959;51.244;5.724;2023-11-19T06:32:34;15.80;73.80
68922;DHT22;55959;51.244;5.724;2023-11-19T06:35:01;15.70;73.60
68922;DHT22;55959;51.244;5.724;2023-11-19T06:37:26;15.70;73.50
68922;DHT22;55959;51.244;5.724;2023-11-19T06:39:52;15.70;73.40
68922;DHT22;55959;51.244;5.724;2023-11-19T06:42:18;15.70;73.40
68922;DHT22;55959;51.244;5.724;2023-11-19T06:44:44;15.70;73.30
68922;DHT22;55959;51.244;5.724;2023-11-19T06:47:09;15.70;73.20
68922;DHT22;55959;51.244;5.724;2023-11-19T06:49:35;15.60;73.10
68922;DHT22;55959;51.244;5.724;2023-11-19T06:52:01;15.60;73.10
68922;DHT22;55959;51.244;5.724;2023-11-19T06:54:27;15.60;73.00
68922;DHT22;55959;51.244;5.724;2023-11-19T06:56:52;15.60;73.00
68922;DHT22;55959;51.244;5.724;2023-11-19T06:59:18;15.60;73.00
68922;DHT22;55959;51.244;5.724;2023-11-19T07:01:44;15.50;72.90
68922;DHT22;55959;51.244;5.724;2023-11-19T07:04:13;15.60;73.00
68922;DHT22;55959;51.244;5.724;2023-11-19T07:06:38;15.50;72.80
68922;DHT22;55959;51.244;5.724;2023-11-19T07:09:06;15.50;72.90
68922;DHT22;55959;51.244;5.724;2023-11-19T07:11:39;15.50;72.90
68922;DHT22;55959;51.244;5.724;2023-11-19T07:14:06;15.50;73.00
68922;DHT22;55959;51.244;5.724;2023-11-19T07:16:33;15.40;72.90
68922;DHT22;55959;51.244;5.724;2023-11-19T07:19:00;15.40;73.00
68922;DHT22;55959;51.244;5.724;2023-11-19T07:21:27;15.40;73.00
68922;DHT22;55959;51.244;5.724;2023-11-19T07:23:54;15.40;73.00
68922;DHT22;55959;51.244;5.724;2023-11-19T07:26:20;15.40;73.10
68922;DHT22;55959;51.244;5.724;2023-11-19T07:28:47;15.40;73.10
68922;DHT22;55959;51.244;5.724;2023-11-19T07:31:13;15.40;73.20
68922;DHT22;55959;51.244;5.724;2023-11-19T07:33:42;15.40;74.00
68922;DHT22;55959;51.244;5.724;2023-11-19T07:36:09;15.30;73.20
68922;DHT22;55959;51.244;5.724;2023-11-19T07:38:35;15.30;73.20
68922;DHT22;55959;51.244;5.724;2023-11-19T07:41:01;15.30;73.30
68922;DHT22;55959;51.244;5.724;2023-11-19T07:43:27;15.30;73.30
68922;DHT22;55959;51.244;5.724;2023-11-19T07:45:52;15.30;73.30
68922;DHT22;55959;51.244;5.724;2023-11-19T07:48:18;15.30;73.40
68922;DHT22;55959;51.244;5.724;2023-11-19T07:50:52;15.30;73.40
68922;DHT22;55959;51.244;5.724;2023-11-19T07:53:19;15.30;73.50
68922;DHT22;55959;51.244;5.724;2023-11-19T07:55:45;15.30;73.40
68922;DHT22;55959;51.244;5.724;2023-11-19T07:58:11;15.30;73.40
68922;DHT22;55959;51.244;5.724;2023-11-19T08:00:37;15.30;73.40
68922;DHT22;55959;51.244;5.724;2023-11-19T08:03:04;15.30;73.50
68922;DHT22;55959;51.244;5.724;2023-11-19T08:05:31;15.30;73.60
68922;DHT22;55959;51.244;5.724;2023-11-19T08:07:57;15.30;73.60
68922;DHT22;55959;51.244;5.724;2023-11-19T08:10:23;15.30;73.70
68922;DHT22;55959;51.244;5.724;2023-11-19T08:12:49;15.30;73.70
68922;DHT22;55959;51.244;5.724;2023-11-19T08:15:15;15.30;73.60
68922;DHT22;55959;51.244;5.724;2023-11-19T08:17:42;15.30;73.60
68922;DHT22;55959;51.244;5.724;2023-11-19T08:20:10;15.20;73.60
68922;DHT22;55959;51.244;5.724;2023-11-19T08:22:37;15.30;73.70
68922;DHT22;55959;51.244;5.724;2023-11-19T08:25:05;15.20;73.60
68922;DHT22;55959;51.244;5.724;2023-11-19T08:27:31;15.20;73.70
68922;DHT22;55959;51.244;5.724;2023-11-19T08:29:57;15.30;73.70
68922;DHT22;55959;51.244;5.724;2023-11-19T08:32:27;15.20;73.70
68922;DHT22;55959;51.244;5.724;2023-11-19T08:34:53;15.20;73.70
68922;DHT22;55959;51.244;5.724;2023-11-19T08:37:19;15.20;73.80
68922;DHT22;55959;51.244;5.724;2023-11-19T08:39:47;15.30;74.00
68922;DHT22;55959;51.244;5.724;2023-11-19T08:42:13;15.30;74.00
68922;DHT22;55959;51.244;5.724;2023-11-19T08:44:39;15.30;74.00
68922;DHT22;55959;51.244;5.724;2023-11-19T08:47:09;15.30;74.00
68922;DHT22;55959;51.244;5.724;2023-11-19T08:49:35;15.30;74.00
68922;DHT22;55959;51.244;5.724;2023-11-19T08:52:01;15.30;74.10
68922;DHT22;55959;51.244;5.724;2023-11-19T08:54:27;15.30;74.00
68922;DHT22;55959;51.244;5.724;2023-11-19T08:56:52;15.30;74.10
68922;DHT22;55959;51.244;5.724;2023-11-19T08:59:18;15.30;74.20
68922;DHT22;55959;51.244;5.724;2023-11-19T09:01:44;15.30;74.20
68922;DHT22;55959;51.244;5.724;2023-11-19T09:04:11;15.30;74.20
68922;DHT22;55959;51.244;5.724;2023-11-19T09:06:36;15.40;74.10
68922;DHT22;55959;51.244;5.724;2023-11-19T09:09:02;15.40;74.10
68922;DHT22;55959;51.244;5.724;2023-11-19T09:11:30;15.40;74.00
68922;DHT22;55959;51.244;5.724;2023-11-19T09:13:57;15.40;74.00
68922;DHT22;55959;51.244;5.724;2023-11-19T09:16:23;15.40;74.10
68922;DHT22;55959;51.244;5.724;2023-11-19T09:18:49;15.50;74.10
68922;DHT22;55959;51.244;5.724;2023-11-19T09:21:15;15.50;74.20
68922;DHT22;55959;51.244;5.724;2023-11-19T09:23:41;15.50;74.20
68922;DHT22;55959;51.244;5.724;2023-11-19T09:26:08;15.50;74.10
68922;DHT22;55959;51.244;5.724;2023-11-19T09:28:36;15.50;74.20
68922;DHT22;55959;51.244;5.724;2023-11-19T09:31:02;15.60;74.20
68922;DHT22;55959;51.244;5.724;2023-11-19T09:33:30;15.60;74.10
68922;DHT22;55959;51.244;5.724;2023-11-19T09:35:56;15.60;74.00
68922;DHT22;55959;51.244;5.724;2023-11-19T09:38:23;15.60;73.90
68922;DHT22;55959;51.244;5.724;2023-11-19T09:40:48;15.60;73.90
68922;DHT22;55959;51.244;5.724;2023-11-19T09:43:17;15.70;74.80
68922;DHT22;55959;51.244;5.724;2023-11-19T09:45:50;15.70;73.80
68922;DHT22;55959;51.244;5.724;2023-11-19T09:48:19;15.70;73.70
68922;DHT22;55959;51.244;5.724;2023-11-19T09:50:47;15.70;73.60
68922;DHT22;55959;51.244;5.724;2023-11-19T09:53:14;15.70;73.60
68922;DHT22;55959;51.244;5.724;2023-11-19T09:55:45;15.70;73.60
68922;DHT22;55959;51.244;5.724;2023-11-19T09:58:14;15.70;73.60
68922;DHT22;55959;51.244;5.724;2023-11-19T10:00:40;15.80;73.70
68922;DHT22;55959;51.244;5.724;2023-11-19T10:03:07;15.80;73.80
68922;DHT22;55959;51.244;5.724;2023-11-19T10:05:36;15.80;73.80
68922;DHT22;55959;51.244;5.724;2023-11-19T10:08:04;15.80;73.60
68922;DHT22;55959;51.244;5.724;2023-11-19T10:10:30;15.90;73.60
68922;DHT22;55959;51.244;5.724;2023-11-19T10:12:56;15.90;73.50
68922;DHT22;55959;51.244;5.724;2023-11-19T10:15:24;15.90;73.30
68922;DHT22;55959;51.244;5.724;2023-11-19T10:17:55;15.90;73.10
68922;DHT22;55959;51.244;5.724;2023-11-19T10:20:22;15.90;73.00
68922;DHT22;55959;51.244;5.724;2023-11-19T10:22:48;16.00;73.70
68922;DHT22;55959;51.244;5.724;2023-11-19T10:25:25;16.00;72.70
68922;DHT22;55959;51.244;5.724;2023-11-19T10:27:53;16.00;72.70
68922;DHT22;55959;51.244;5.724;2023-11-19T10:30:24;16.00;72.70
68922;DHT22;55959;51.244;5.724;2023-11-19T10:33:11;16.00;72.70
68922;DHT22;55959;51.244;5.724;2023-11-19T10:35:57;16.00;72.70
68922;DHT22;55959;51.244;5.724;2023-11-19T10:38:24;16.00;72.50
68922;DHT22;55959;51.244;5.724;2023-11-19T10:40:51;16.00;72.50
68922;DHT22;55959;51.244;5.724;2023-11-19T10:43:18;16.10;72.60
68922;DHT22;55959;51.244;5.724;2023-11-19T10:45:44;16.10;72.40
68922;DHT22;55959;51.244;5.724;2023-11-19T10:48:09;16.10;72.30
68922;DHT22;55959;51.244;5.724;2023-11-19T10:50:36;16.10;72.30
68922;DHT22;55959;51.244;5.724;2023-11-19T10:53:04;16.20;72.30
68922;DHT22;55959;51.244;5.724;2023-11-19T10:55:35;16.20;72.30
68922;DHT22;55959;51.244;5.724;2023-11-19T10:58:10;16.20;71.90
68922;DHT22;55959;51.244;5.724;2023-11-19T11:00:47;16.20;71.90
68922;DHT22;55959;51.244;5.724;2023-11-19T11:03:20;16.30;71.90
68922;DHT22;55959;51.244;5.724;2023-11-19T11:05:50;16.30;71.70
68922;DHT22;55959;51.244;5.724;2023-11-19T11:08:17;16.30;71.50
68922;DHT22;55959;51.244;5.724;2023-11-19T11:10:55;16.30;71.50
68922;DHT22;55959;51.244;5.724;2023-11-19T11:13:25;16.30;71.40
68922;DHT22;55959;51.244;5.724;2023-11-19T11:15:53;16.40;71.30
68922;DHT22;55959;51.244;5.724;2023-11-19T11:18:21;16.40;71.10
68922;DHT22;55959;51.244;5.724;2023-11-19T11:20:49;16.40;71.10
68922;DHT22;55959;51.244;5.724;2023-11-19T11:29:47;16.40;70.90
68922;DHT22;55959;51.244;5.724;2023-11-19T11:38:29;16.50;70.50
68922;DHT22;55959;51.244;5.724;2023-11-19T11:43:53;16.50;70.20
68922;DHT22;55959;51.244;5.724;2023-11-19T11:49:07;16.50;70.00
68922;DHT22;55959;51.244;5.724;2023-11-19T11:52:00;16.50;70.00
68922;DHT22;55959;51.244;5.724;2023-11-19T11:54:28;16.50;70.10
68922;DHT22;55959;51.244;5.724;2023-11-19T11:57:12;16.50;70.30
68922;DHT22;55959;51.244;5.724;2023-11-19T12:02:12;16.50;70.50
68922;DHT22;55959;51.244;5.724;2023-11-19T12:04:42;16.50;70.80
68922;DHT22;55959;51.244;5.724;2023-11-19T12:07:13;16.50;70.90
68922;DHT22;55959;51.244;5.724;2023-11-19T12:09:41;16.50;70.90
68922;DHT22;55959;51.244;5.724;2023-11-19T12:17:48;16.50;72.00
68922;DHT22;55959;51.244;5.724;2023-11-19T12:20:19;16.50;71.10
68922;DHT22;55959;51.244;5.724;2023-11-19T12:22:47;16.50;71.20
68922;DHT22;55959;51.244;5.724;2023-11-19T12:25:15;16.50;71.20
68922;DHT22;55959;51.244;5.724;2023-11-19T12:27:53;16.50;71.20
68922;DHT22;55959;51.244;5.724;2023-11-19T12:30:23;16.50;71.30
68922;DHT22;55959;51.244;5.724;2023-11-19T12:32:54;16.60;71.40
68922;DHT22;55959;51.244;5.724;2023-11-19T12:35:20;16.60;71.40
68922;DHT22;55959;51.244;5.724;2023-11-19T12:37:47;16.60;71.40
68922;DHT22;55959;51.244;5.724;2023-11-19T12:40:24;16.60;71.50
68922;DHT22;55959;51.244;5.724;2023-11-19T12:42:52;16.60;71.50
68922;DHT22;55959;51.244;5.724;2023-11-19T12:45:19;16.60;71.40
68922;DHT22;55959;51.244;5.724;2023-11-19T12:47:46;16.70;71.30
68922;DHT22;55959;51.244;5.724;2023-11-19T12:50:14;16.70;71.30
68922;DHT22;55959;51.244;5.724;2023-11-19T12:52:40;16.70;71.30
68922;DHT22;55959;51.244;5.724;2023-11-19T12:55:24;16.70;71.10
68922;DHT22;55959;51.244;5.724;2023-11-19T12:57:54;16.70;71.10
68922;DHT22;55959;51.244;5.724;2023-11-19T13:00:22;16.70;70.90
68922;DHT22;55959;51.244;5.724;2023-11-19T13:02:51;16.70;70.90
68922;DHT22;55959;51.244;5.724;2023-11-19T13:08:03;16.80;70.60
68922;DHT22;55959;51.244;5.724;2023-11-19T13:10:53;16.80;70.50
68922;DHT22;55959;51.244;5.724;2023-11-19T13:13:19;16.80;70.30
68922;DHT22;55959;51.244;5.724;2023-11-19T13:15:46;16.80;69.90
68922;DHT22;55959;51.244;5.724;2023-11-19T13:18:12;16.80;69.60
68922;DHT22;55959;51.244;5.724;2023-11-19T13:20:39;16.80;69.50
68922;DHT22;55959;51.244;5.724;2023-11-19T13:23:06;16.80;69.50
68922;DHT22;55959;51.244;5.724;2023-11-19T13:25:35;16.80;69.20
68922;DHT22;55959;51.244;5.724;2023-11-19T13:28:01;16.80;69.20
68922;DHT22;55959;51.244;5.724;2023-11-19T13:30:27;16.80;69.20
68922;DHT22;55959;51.244;5.724;2023-11-19T13:32:54;16.80;69.10
68922;DHT22;55959;51.244;5.724;2023-11-19T13:35:21;16.80;69.10
68922;DHT22;55959;51.244;5.724;2023-11-19T13:37:48;16.80;69.10
68922;DHT22;55959;51.244;5.724;2023-11-19T13:40:14;16.70;69.10
68922;DHT22;55959;51.244;5.724;2023-11-19T13:42:41;16.70;69.40
68922;DHT22;55959;51.244;5.724;2023-11-19T13:45:12;16.70;69.60
68922;DHT22;55959;51.244;5.724;2023-11-19T13:47:39;16.70;69.70
68922;DHT22;55959;51.244;5.724;2023-11-19T13:50:10;16.70;69.80
68922;DHT22;55959;51.244;5.724;2023-11-19T13:52:38;16.70;70.10
68922;DHT22;55959;51.244;5.724;2023-11-19T13:55:06;16.60;70.20
68922;DHT22;55959;51.244;5.724;2023-11-19T13:57:34;16.60;70.30
68922;DHT22;55959;51.244;5.724;2023-11-19T14:00:04;16.60;70.50
68922;DHT22;55959;51.244;5.724;2023-11-19T14:02:32;16.60;70.60
68922;DHT22;55959;51.244;5.724;2023-11-19T14:04:59;16.60;70.70
68922;DHT22;55959;51.244;5.724;2023-11-19T14:07:25;16.50;70.80
68922;DHT22;55959;51.244;5.724;2023-11-19T14:09:51;16.50;70.90
68922;DHT22;55959;51.244;5.724;2023-11-19T14:12:17;16.50;71.10
68922;DHT22;55959;51.244;5.724;2023-11-19T14:14:43;16.50;71.20
68922;DHT22;55959;51.244;5.724;2023-11-19T14:17:09;16.50;71.30
68922;DHT22;55959;51.244;5.724;2023-11-19T14:19:36;16.40;71.30
68922;DHT22;55959;51.244;5.724;2023-11-19T14:22:03;16.40;71.30
68922;DHT22;55959;51.244;5.724;2023-11-19T14:24:29;16.40;71.30
68922;DHT22;55959;51.244;5.724;2023-11-19T14:26:55;16.40;71.40
68922;DHT22;55959;51.244;5.724;2023-11-19T14:29:24;16.40;71.50
68922;DHT22;55959;51.244;5.724;2023-11-19T14:31:51;16.30;71.50
68922;DHT22;55959;51.244;5.724;2023-11-19T14:34:19;16.30;71.70
68922;DHT22;55959;51.244;5.724;2023-11-19T14:36:45;16.30;71.70
68922;DHT22;55959;51.244;5.724;2023-11-19T14:39:11;16.30;71.80
68922;DHT22;55959;51.244;5.724;2023-11-19T14:41:37;16.30;71.90
68922;DHT22;55959;51.244;5.724;2023-11-19T14:44:04;16.30;72.10
68922;DHT22;55959;51.244;5.724;2023-11-19T14:46:31;16.30;72.10
68922;DHT22;55959;51.244;5.724;2023-11-19T14:48:56;16.20;72.10
68922;DHT22;55959;51.244;5.724;2023-11-19T14:51:22;16.20;72.10
68922;DHT22;55959;51.244;5.724;2023-11-19T14:53:48;16.30;72.10
68922;DHT22;55959;51.244;5.724;2023-11-19T14:56:14;16.20;71.90
68922;DHT22;55959;51.244;5.724;2023-11-19T14:58:40;16.20;71.90
68922;DHT22;55959;51.244;5.724;2023-11-19T15:01:06;16.20;71.90
68922;DHT22;55959;51.244;5.724;2023-11-19T15:03:33;16.20;71.90
68922;DHT22;55959;51.244;5.724;2023-11-19T15:05:58;16.20;71.80
68922;DHT22;55959;51.244;5.724;2023-11-19T15:08:25;16.20;71.60
68922;DHT22;55959;51.244;5.724;2023-11-19T15:10:50;16.20;71.70
68922;DHT22;55959;51.244;5.724;2023-11-19T15:13:16;16.10;71.60
68922;DHT22;55959;51.244;5.724;2023-11-19T15:15:42;16.10;71.70
68922;DHT22;55959;51.244;5.724;2023-11-19T15:18:08;16.20;71.70
68922;DHT22;55959;51.244;5.724;2023-11-19T15:20:35;16.10;71.70
68922;DHT22;55959;51.244;5.724;2023-11-19T15:23:02;16.10;71.60
68922;DHT22;55959;51.244;5.724;2023-11-19T15:25:27;16.10;71.50
68922;DHT22;55959;51.244;5.724;2023-11-19T15:27:53;16.10;71.40
68922;DHT22;55959;51.244;5.724;2023-11-19T15:30:20;16.10;71.40
68922;DHT22;55959;51.244;5.724;2023-11-19T15:32:47;16.00;71.50
68922;DHT22;55959;51.244;5.724;2023-11-19T15:35:13;16.00;71.50
68922;DHT22;55959;51.244;5.724;2023-11-19T15:37:38;16.00;71.50
68922;DHT22;55959;51.244;5.724;2023-11-19T15:40:07;16.00;71.60
68922;DHT22;55959;51.244;5.724;2023-11-19T15:42:34;16.00;71.70
68922;DHT22;55959;51.244;5.724;2023-11-19T15:45:01;16.00;71.70
68922;DHT22;55959;51.244;5.724;2023-11-19T15:47:30;15.90;71.70
68922;DHT22;55959;51.244;5.724;2023-11-19T15:49:56;15.90;71.80
68922;DHT22;55959;51.244;5.724;2023-11-19T15:52:21;15.90;71.90
68922;DHT22;55959;51.244;5.724;2023-11-19T15:54:47;15.90;71.90
68922;DHT22;55959;51.244;5.724;2023-11-19T15:57:13;15.90;71.90
68922;DHT22;55959;51.244;5.724;2023-11-19T15:59:39;15.90;71.80
68922;DHT22;55959;51.244;5.724;2023-11-19T16:02:05;15.90;71.80